createdAt,value
2022-11-05T00:01:54.227Z,5.47
2022-11-05T00:04:40.210Z,5.72
2022-11-05T00:07:27.453Z,6.18
2022-11-05T00:09:59.758Z,5.95
2022-11-05T00:12:46.042Z,5.38
2022-11-05T00:15:31.784Z,5.07
2022-11-05T00:18:00.255Z,5.90
2022-11-05T00:20:28.809Z,5.22
2022-11-05T00:23:19.506Z,5.47
2022-11-05T00:25:56.805Z,5.43
2022-11-05T00:28:25.340Z,5.35
2022-11-05T00:30:54.252Z,5.30
2022-11-05T00:33:22.770Z,5.45
2022-11-05T00:35:51.234Z,5.40
2022-11-05T00:38:19.649Z,5.43
2022-11-05T00:40:48.113Z,5.03
2022-11-05T00:43:35.525Z,5.30
2022-11-05T00:46:04.000Z,5.00
2022-11-05T00:48:50.152Z,4.95
2022-11-05T00:51:18.641Z,4.60
2022-11-05T00:53:47.069Z,5.00
2022-11-05T00:56:15.629Z,5.22
2022-11-05T00:58:45.718Z,5.05
2022-11-05T01:01:14.227Z,4.72
2022-11-05T01:03:45.129Z,4.60
2022-11-05T01:06:18.416Z,4.80
2022-11-05T01:08:47.504Z,4.43
2022-11-05T01:11:33.195Z,4.20
2022-11-05T01:14:04.173Z,5.07
2022-11-05T01:16:32.874Z,4.82
2022-11-05T01:19:01.421Z,4.90
2022-11-05T01:21:29.892Z,4.80
2022-11-05T01:23:58.414Z,5.05
2022-11-05T01:26:26.911Z,5.05
2022-11-05T01:28:55.743Z,5.25
2022-11-05T01:31:26.089Z,5.55
2022-11-05T01:33:54.568Z,4.70
2022-11-05T01:36:23.026Z,4.88
2022-11-05T01:38:51.527Z,5.22
2022-11-05T01:41:19.960Z,5.38
2022-11-05T01:43:49.303Z,5.53
2022-11-05T01:46:19.070Z,5.50
2022-11-05T01:48:50.382Z,5.47
2022-11-05T01:51:20.621Z,5.18
2022-11-05T01:53:50.556Z,5.20
2022-11-05T01:56:20.381Z,5.57
2022-11-05T01:58:50.875Z,5.72
2022-11-05T02:01:19.754Z,5.47
2022-11-05T02:03:50.465Z,5.70
2022-11-05T02:06:19.343Z,5.22
2022-11-05T02:08:53.007Z,4.82
2022-11-05T02:11:22.059Z,5.72
2022-11-05T02:13:51.244Z,5.10
2022-11-05T02:16:26.214Z,5.45
2022-11-05T02:18:59.366Z,5.05
2022-11-05T02:21:38.091Z,5.07
2022-11-05T02:24:19.893Z,4.90
2022-11-05T02:26:59.849Z,4.97
2022-11-05T02:29:41.557Z,4.60
2022-11-05T02:32:16.616Z,4.85
2022-11-05T02:34:51.221Z,4.28
2022-11-05T02:37:24.718Z,4.38
2022-11-05T02:39:55.263Z,4.53
2022-11-05T02:42:30.484Z,5.00
2022-11-05T02:45:02.216Z,5.00
2022-11-05T02:47:36.138Z,5.03
2022-11-05T02:50:08.942Z,4.63
2022-11-05T02:52:39.364Z,5.03
2022-11-05T02:55:10.333Z,4.50
2022-11-05T02:57:39.302Z,4.70
2022-11-05T03:00:08.853Z,4.95
2022-11-05T03:02:38.873Z,4.18
2022-11-05T03:05:07.828Z,4.95
2022-11-05T03:07:45.914Z,4.85
2022-11-05T03:10:25.682Z,4.82
2022-11-05T03:12:58.935Z,5.00
2022-11-05T03:15:33.077Z,4.88
2022-11-05T03:18:07.763Z,5.40
2022-11-05T03:20:39.090Z,4.93
2022-11-05T03:23:11.719Z,4.85
2022-11-05T03:25:42.484Z,4.32
2022-11-05T03:28:12.256Z,4.70
2022-11-05T03:30:42.006Z,5.03
2022-11-05T03:33:13.952Z,4.57
2022-11-05T03:35:44.680Z,4.53
2022-11-05T03:38:15.421Z,4.75
2022-11-05T03:40:44.662Z,4.80
2022-11-05T03:43:14.595Z,5.25
2022-11-05T03:45:45.933Z,4.53
2022-11-05T03:48:16.602Z,5.07
2022-11-05T03:50:48.350Z,5.35
2022-11-05T03:53:18.719Z,4.70
2022-11-05T03:55:50.492Z,5.00
2022-11-05T03:58:21.600Z,5.22
2022-11-05T04:00:50.231Z,4.85
2022-11-05T04:03:20.128Z,4.68
2022-11-05T04:06:09.435Z,4.88
2022-11-05T04:08:55.492Z,4.45
2022-11-05T04:11:41.550Z,4.57
2022-11-05T04:14:10.030Z,4.60
2022-11-05T04:16:56.020Z,5.07
2022-11-05T04:19:39.764Z,4.50
2022-11-05T04:22:25.623Z,5.30
2022-11-05T04:24:54.119Z,4.57
2022-11-05T04:27:22.632Z,5.82
2022-11-05T04:30:08.473Z,4.75
2022-11-05T04:32:37.086Z,5.25
2022-11-05T04:35:07.203Z,5.45
2022-11-05T04:37:35.648Z,4.60
2022-11-05T04:40:04.146Z,5.28
2022-11-05T04:42:32.633Z,5.32
2022-11-05T04:45:01.121Z,5.55
2022-11-05T04:47:29.580Z,5.82
2022-11-05T04:49:58.025Z,6.00
2022-11-05T04:52:27.838Z,5.50
2022-11-05T04:54:56.258Z,5.55
2022-11-05T04:57:24.731Z,5.25
2022-11-05T04:59:55.088Z,6.00
2022-11-05T05:02:23.626Z,5.60
2022-11-05T05:04:52.090Z,5.90
2022-11-05T05:07:20.542Z,6.40
2022-11-05T05:09:50.388Z,5.60
2022-11-05T05:12:18.884Z,5.53
2022-11-05T05:14:49.610Z,5.60
2022-11-05T05:17:18.129Z,6.20
2022-11-05T05:20:04.397Z,5.80
2022-11-05T05:22:32.861Z,5.82
2022-11-05T05:25:02.694Z,6.05
2022-11-05T05:27:31.635Z,5.85
2022-11-05T05:30:00.608Z,6.07
2022-11-05T05:32:29.082Z,5.75
2022-11-05T05:34:57.741Z,6.07
2022-11-05T05:37:26.159Z,6.18
2022-11-05T05:39:54.852Z,6.20
2022-11-05T05:42:24.676Z,6.00
2022-11-05T05:44:53.105Z,5.90
2022-11-05T05:47:21.555Z,6.18
2022-11-05T05:49:50.015Z,5.55
2022-11-05T05:52:18.508Z,5.65
2022-11-05T05:54:46.978Z,5.47
2022-11-05T05:57:15.440Z,6.22
2022-11-05T05:59:45.231Z,5.35
2022-11-05T06:02:13.757Z,5.43
2022-11-05T06:04:42.293Z,5.90
2022-11-05T06:07:10.750Z,6.00
2022-11-05T06:09:39.227Z,5.68
2022-11-05T06:12:08.009Z,5.75
2022-11-05T06:14:36.458Z,5.70
2022-11-05T06:17:06.314Z,5.65
2022-11-05T06:19:34.765Z,5.97
2022-11-05T06:22:03.251Z,6.32
2022-11-05T06:24:31.719Z,6.20
2022-11-05T06:27:00.201Z,6.57
2022-11-05T06:29:28.768Z,6.53
2022-11-05T06:31:57.254Z,5.88
2022-11-05T06:34:27.055Z,6.22
2022-11-05T06:36:55.475Z,6.25
2022-11-05T06:39:23.978Z,6.13
2022-11-05T06:42:20.983Z,5.88
2022-11-05T06:44:40.839Z,6.30
2022-11-05T06:47:10.295Z,6.38
2022-11-05T06:49:40.133Z,6.53
2022-11-05T06:52:08.575Z,5.97
2022-11-05T06:54:37.109Z,7.32
2022-11-05T06:57:06.272Z,6.15
2022-11-05T06:59:34.765Z,6.63
2022-11-05T07:02:03.315Z,7.10
2022-11-05T07:04:31.814Z,6.63
2022-11-05T07:07:02.281Z,6.40
2022-11-05T07:09:30.933Z,6.28
2022-11-05T07:11:59.547Z,6.50
2022-11-05T07:14:27.985Z,6.40
2022-11-05T07:16:56.455Z,7.00
2022-11-05T07:19:24.925Z,6.85
2022-11-05T07:21:53.378Z,6.50
2022-11-05T07:24:23.219Z,7.00
2022-11-05T07:26:51.709Z,6.00
2022-11-05T07:29:20.093Z,7.18
2022-11-05T07:31:48.731Z,6.97
2022-11-05T07:34:17.283Z,7.28
2022-11-05T07:36:46.112Z,7.32
2022-11-05T07:39:14.980Z,7.53
2022-11-05T07:42:00.651Z,6.93
2022-11-05T07:44:31.197Z,6.70
2022-11-05T07:46:59.648Z,7.40
2022-11-05T07:49:28.093Z,6.47
2022-11-05T07:51:56.547Z,7.90
2022-11-05T07:54:56.525Z,7.07
2022-11-05T07:57:35.708Z,6.63
2022-11-05T08:00:07.446Z,6.53
2022-11-05T08:03:08.456Z,7.07
2022-11-05T08:05:57.332Z,6.82
2022-11-05T08:08:32.069Z,7.28
2022-11-05T08:11:28.326Z,7.28
2022-11-05T08:13:58.363Z,7.38
2022-11-05T08:16:27.179Z,7.78
2022-11-05T08:18:55.666Z,8.38
2022-11-05T08:21:24.234Z,8.30
2022-11-05T08:23:52.843Z,8.85
2022-11-05T08:26:21.817Z,7.63
2022-11-05T08:28:50.349Z,8.25
2022-11-05T08:31:20.343Z,9.18
2022-11-05T08:33:48.879Z,8.65
2022-11-05T08:36:17.672Z,8.27
2022-11-05T08:38:46.164Z,8.25
2022-11-05T08:41:14.714Z,7.95
2022-11-05T08:43:43.214Z,8.07
2022-11-05T08:46:11.911Z,8.30
2022-11-05T08:48:41.828Z,7.97
2022-11-05T08:51:10.345Z,8.07
2022-11-05T08:53:41.270Z,8.27
2022-11-05T08:56:10.120Z,8.52
2022-11-05T08:58:38.573Z,8.43
2022-11-05T09:01:09.641Z,8.57
2022-11-05T09:03:38.281Z,8.48
2022-11-05T09:06:08.539Z,8.05
2022-11-05T09:08:37.040Z,8.70
2022-11-05T09:11:05.542Z,8.27
2022-11-05T09:13:34.028Z,8.98
2022-11-05T09:16:02.535Z,9.10
2022-11-05T09:18:31.111Z,12.18
2022-11-05T09:20:59.584Z,8.38
2022-11-05T09:23:29.633Z,8.93
2022-11-05T09:25:58.186Z,9.10
2022-11-05T09:28:28.344Z,8.82
2022-11-05T09:30:56.860Z,8.57
2022-11-05T09:33:26.357Z,10.73
2022-11-05T09:35:55.349Z,9.77
2022-11-05T09:38:23.962Z,8.40
2022-11-05T09:41:01.330Z,8.70
2022-11-05T09:43:32.915Z,8.50
2022-11-05T09:46:05.486Z,8.43
2022-11-05T09:48:34.562Z,9.05
2022-11-05T09:51:03.366Z,9.75
2022-11-05T09:53:31.847Z,7.57
2022-11-05T09:56:03.081Z,7.70
2022-11-05T09:58:40.763Z,8.23
2022-11-05T10:01:13.489Z,8.63
2022-11-05T10:03:45.450Z,8.55
2022-11-05T10:06:16.485Z,8.52
2022-11-05T10:08:46.752Z,8.15
2022-11-05T10:11:19.012Z,7.97
2022-11-05T10:13:49.304Z,7.97
2022-11-05T10:16:23.193Z,8.00
2022-11-05T10:18:54.698Z,7.45
2022-11-05T10:21:44.239Z,8.32
2022-11-05T10:24:15.871Z,8.40
2022-11-05T10:26:46.726Z,8.20
2022-11-05T10:29:15.745Z,8.93
2022-11-05T10:31:44.794Z,8.95
2022-11-05T10:34:17.819Z,8.25
2022-11-05T10:36:46.379Z,8.20
2022-11-05T10:39:16.098Z,7.10
2022-11-05T10:41:53.507Z,7.28
2022-11-05T10:44:30.960Z,8.20
2022-11-05T10:47:03.689Z,7.63
2022-11-05T10:49:39.898Z,7.97
2022-11-05T10:52:15.173Z,7.35
2022-11-05T10:54:43.713Z,7.75
2022-11-05T10:57:27.169Z,7.47
2022-11-05T11:00:12.231Z,7.88
2022-11-05T11:02:42.211Z,7.82
2022-11-05T11:05:11.216Z,8.35
2022-11-05T11:07:39.829Z,8.63
2022-11-05T11:10:08.609Z,9.27
2022-11-05T11:12:40.991Z,8.00
2022-11-05T11:15:16.900Z,7.60
2022-11-05T11:17:45.422Z,8.13
2022-11-05T11:20:19.950Z,7.60
2022-11-05T11:23:00.563Z,7.28
2022-11-05T11:25:29.958Z,7.68
2022-11-05T11:28:03.547Z,8.02
2022-11-05T11:30:35.290Z,7.70
2022-11-05T11:33:07.249Z,7.55
2022-11-05T11:35:37.076Z,7.50
2022-11-05T11:38:06.758Z,7.28
2022-11-05T11:40:36.566Z,7.68
2022-11-05T11:43:07.008Z,7.63
2022-11-05T11:45:38.760Z,7.55
2022-11-05T11:48:07.889Z,7.55
2022-11-05T11:50:38.996Z,8.13
2022-11-05T11:53:34.513Z,7.88
2022-11-05T11:56:07.660Z,7.50
2022-11-05T11:58:43.653Z,7.10
2022-11-05T12:01:20.416Z,7.53
2022-11-05T12:03:51.330Z,7.40
2022-11-05T12:06:27.068Z,7.32
2022-11-05T12:09:06.396Z,7.38
2022-11-05T12:11:41.073Z,6.90
2022-11-05T12:14:15.267Z,6.82
2022-11-05T12:16:51.919Z,6.95
2022-11-05T12:19:26.607Z,8.55
2022-11-05T12:22:02.001Z,6.25
2022-11-05T12:24:46.046Z,6.88
2022-11-05T12:29:50.980Z,5.68
2022-11-05T12:32:29.444Z,6.63
2022-11-05T12:35:00.597Z,6.13
2022-11-05T12:37:32.564Z,5.88
2022-11-05T12:40:04.956Z,6.43
2022-11-05T12:42:39.058Z,6.05
2022-11-05T12:45:16.123Z,5.13
2022-11-05T12:47:58.864Z,5.28
2022-11-05T12:50:30.619Z,5.95
2022-11-05T12:53:06.605Z,5.70
2022-11-05T12:55:41.724Z,9.43
2022-11-05T12:58:15.147Z,5.93
2022-11-05T13:00:49.420Z,5.00
2022-11-05T13:03:26.826Z,4.88
2022-11-05T13:06:01.495Z,5.32
2022-11-05T13:08:38.823Z,5.35
2022-11-05T13:11:13.107Z,5.32
2022-11-05T13:13:43.257Z,5.28
2022-11-05T13:16:14.550Z,5.50
2022-11-05T13:18:46.352Z,5.50
2022-11-05T13:21:15.299Z,5.28
2022-11-05T13:23:46.321Z,5.20
2022-11-05T13:26:20.072Z,5.30
2022-11-05T13:31:21.809Z,6.00
2022-11-05T13:33:53.153Z,6.38
2022-11-05T13:36:41.134Z,6.00
2022-11-05T13:39:14.998Z,5.55
2022-11-05T13:41:53.147Z,5.80
2022-11-05T13:44:29.081Z,5.22
2022-11-05T13:47:24.507Z,5.18
2022-11-05T13:50:08.027Z,5.38
2022-11-05T13:52:56.030Z,4.80
2022-11-05T13:55:35.669Z,4.85
2022-11-05T13:58:14.026Z,4.43
2022-11-05T14:00:45.223Z,3.67
2022-11-05T14:03:18.927Z,3.88
2022-11-05T14:05:53.954Z,3.40
2022-11-05T14:08:29.809Z,3.55
2022-11-05T14:11:00.370Z,3.42
2022-11-05T14:13:34.875Z,3.35
2022-11-05T14:16:05.140Z,2.97
2022-11-05T14:18:41.897Z,3.08
2022-11-05T14:24:28.098Z,3.00
2022-11-05T14:27:38.916Z,3.03
2022-11-05T14:30:28.810Z,3.22
2022-11-05T14:33:07.539Z,2.80
2022-11-05T14:35:38.029Z,3.65
2022-11-05T14:38:30.323Z,3.13
2022-11-05T14:41:01.061Z,2.97
2022-11-05T14:43:30.731Z,2.97
2022-11-05T14:46:01.370Z,3.28
2022-11-05T14:48:38.984Z,5.50
2022-11-05T14:51:24.415Z,4.20
2022-11-05T14:53:53.394Z,5.85
2022-11-05T14:56:22.012Z,8.13
2022-11-05T14:58:50.537Z,8.85
2022-11-05T15:01:34.053Z,14.60
2022-11-05T15:04:20.699Z,12.18
2022-11-05T15:07:04.084Z,11.70
2022-11-05T15:09:35.896Z,8.85
2022-11-05T15:12:16.763Z,8.35
2022-11-05T15:14:56.178Z,6.68
2022-11-05T15:17:29.815Z,9.27
2022-11-05T15:20:05.264Z,9.15
2022-11-05T15:22:36.382Z,9.23
2022-11-05T15:25:06.100Z,6.07
2022-11-05T15:27:55.355Z,5.03
2022-11-05T15:30:24.920Z,5.00
2022-11-05T15:32:53.882Z,6.80
2022-11-05T15:35:27.026Z,5.10
2022-11-05T15:38:02.154Z,5.00
2022-11-05T15:40:32.052Z,4.90
2022-11-05T15:43:19.680Z,3.67
2022-11-05T15:46:09.402Z,3.50
2022-11-05T15:48:38.472Z,3.45
2022-11-05T15:51:09.212Z,3.75
2022-11-05T15:54:01.821Z,4.05
2022-11-05T15:56:30.157Z,4.97
2022-11-05T15:59:01.231Z,4.57
2022-11-05T16:01:30.822Z,6.18
2022-11-05T16:04:08.669Z,6.68
2022-11-05T16:06:46.752Z,7.60
2022-11-05T16:09:26.007Z,7.80
2022-11-05T16:12:13.479Z,6.28
2022-11-05T16:14:42.353Z,5.85
2022-11-05T16:17:25.742Z,8.60
2022-11-05T16:19:54.792Z,7.55
2022-11-05T16:22:26.225Z,12.93
2022-11-05T16:24:54.953Z,12.48
2022-11-05T16:27:24.008Z,10.55
2022-11-05T16:29:53.782Z,8.82
2022-11-05T16:32:29.779Z,7.00
2022-11-05T16:35:08.619Z,5.97
2022-11-05T16:37:40.078Z,5.88
2022-11-05T16:40:15.000Z,4.90
2022-11-05T16:42:44.133Z,5.35
2022-11-05T16:45:14.836Z,5.65
2022-11-05T16:47:45.373Z,4.75
2022-11-05T16:50:26.945Z,5.97
2022-11-05T16:52:56.777Z,5.85
2022-11-05T16:55:25.212Z,7.40
2022-11-05T16:57:54.737Z,10.38
2022-11-05T17:00:23.774Z,11.88
2022-11-05T17:02:52.721Z,12.73
2022-11-05T17:05:23.127Z,10.77
2022-11-05T17:07:51.825Z,10.70
2022-11-05T17:10:22.204Z,13.07
2022-11-05T17:12:50.821Z,12.82
2022-11-05T17:15:20.837Z,9.63
2022-11-05T17:17:49.534Z,9.55
2022-11-05T17:20:24.407Z,8.38
2022-11-05T17:22:52.800Z,7.60
2022-11-05T17:25:22.575Z,7.47
2022-11-05T17:27:51.186Z,8.85
2022-11-05T17:30:20.056Z,8.90
2022-11-05T17:32:48.470Z,8.55
2022-11-05T17:35:16.957Z,8.68
2022-11-05T17:37:45.389Z,9.25
2022-11-05T17:40:16.038Z,8.05
2022-11-05T17:42:45.838Z,8.50
2022-11-05T17:45:15.003Z,7.70
2022-11-05T17:47:43.869Z,8.75
2022-11-05T17:50:13.366Z,8.48
2022-11-05T17:52:41.875Z,9.15
2022-11-05T17:55:17.285Z,9.15
2022-11-05T17:57:47.865Z,9.48
2022-11-05T18:00:17.552Z,9.40
2022-11-05T18:02:48.473Z,8.13
2022-11-05T18:05:17.326Z,8.85
2022-11-05T18:07:46.312Z,8.43
2022-11-05T18:10:14.871Z,8.23
2022-11-05T18:12:43.682Z,8.32
2022-11-05T18:15:14.284Z,7.88
2022-11-05T18:17:42.913Z,8.45
2022-11-05T18:20:18.365Z,7.10
2022-11-05T18:22:47.634Z,7.65
2022-11-05T18:25:16.103Z,10.10
2022-11-05T18:27:44.884Z,10.23
2022-11-05T18:30:15.978Z,8.32
2022-11-05T18:32:44.683Z,7.72
2022-11-05T18:35:13.343Z,7.78
2022-11-05T18:37:41.861Z,6.20
2022-11-05T18:40:10.902Z,7.53
2022-11-05T18:42:39.349Z,7.22
2022-11-05T18:45:08.618Z,7.07
2022-11-05T18:47:38.514Z,7.90
2022-11-05T18:50:09.384Z,7.03
2022-11-05T18:52:37.933Z,7.50
2022-11-05T18:55:06.822Z,7.18
2022-11-05T18:57:35.688Z,7.35
2022-11-05T19:00:05.079Z,7.72
2022-11-05T19:02:33.825Z,7.15
2022-11-05T19:07:52.435Z,7.43
2022-11-05T19:10:20.956Z,8.15
2022-11-05T19:12:49.359Z,8.90
2022-11-05T19:15:17.798Z,8.70
2022-11-05T19:17:47.302Z,8.65
2022-11-05T19:20:17.129Z,9.88
2022-11-05T19:22:45.505Z,11.15
2022-11-05T19:25:13.950Z,10.45
2022-11-05T19:27:43.645Z,11.63
2022-11-05T19:30:12.693Z,12.40
2022-11-05T19:32:41.125Z,13.55
2022-11-05T19:35:09.955Z,13.50
2022-11-05T19:37:39.793Z,10.85
2022-11-05T19:40:09.031Z,11.05
2022-11-05T19:42:37.608Z,9.00
2022-11-05T19:45:30.159Z,8.68
2022-11-05T19:47:54.731Z,8.35
2022-11-05T19:50:26.341Z,9.80
2022-11-05T19:52:56.149Z,8.73
2022-11-05T19:55:24.599Z,10.18
2022-11-05T19:57:53.116Z,11.98
2022-11-05T20:00:21.556Z,8.65
2022-11-05T20:02:50.056Z,8.57
2022-11-05T20:05:19.238Z,8.02
2022-11-05T20:07:52.815Z,8.77
2022-11-05T20:10:23.011Z,8.88
2022-11-05T20:12:51.444Z,8.45
2022-11-05T20:15:20.183Z,8.80
2022-11-05T20:17:51.715Z,9.80
2022-11-05T20:20:20.805Z,9.77
2022-11-05T20:22:49.200Z,8.88
2022-11-05T20:25:17.658Z,9.73
2022-11-05T20:27:47.703Z,11.25
2022-11-05T20:30:16.228Z,9.50
2022-11-05T20:32:44.696Z,10.32
2022-11-05T20:35:13.146Z,9.63
2022-11-05T20:37:41.903Z,9.35
2022-11-05T20:40:10.931Z,9.60
2022-11-05T20:42:39.424Z,10.05
2022-11-05T20:45:09.950Z,9.38
2022-11-05T20:47:38.671Z,10.40
2022-11-05T20:50:07.799Z,9.65
2022-11-05T20:52:36.309Z,9.82
2022-11-05T20:55:08.997Z,11.77
2022-11-05T20:57:38.440Z,12.60
2022-11-05T21:00:07.891Z,9.15
2022-11-05T21:02:41.872Z,10.32
2022-11-05T21:05:10.721Z,9.68
2022-11-05T21:07:39.190Z,10.00
2022-11-05T21:10:08.063Z,10.30
2022-11-05T21:12:36.611Z,10.55
2022-11-05T21:15:05.680Z,9.32
2022-11-05T21:17:34.145Z,10.27
2022-11-05T21:20:04.336Z,9.50
2022-11-05T21:22:32.920Z,10.65
2022-11-05T21:25:01.477Z,10.20
2022-11-05T21:27:30.057Z,9.80
2022-11-05T21:29:58.543Z,10.00
2022-11-05T21:32:26.992Z,9.32
2022-11-05T21:34:55.413Z,10.20
2022-11-05T21:37:25.286Z,10.32
2022-11-05T21:39:54.273Z,9.48
2022-11-05T21:42:22.914Z,11.18
2022-11-05T21:44:54.005Z,10.82
2022-11-05T21:47:26.277Z,10.40
2022-11-05T21:49:54.694Z,11.52
2022-11-05T21:52:40.576Z,10.70
2022-11-05T21:55:29.259Z,10.70
2022-11-05T21:58:15.677Z,10.38
2022-11-05T22:00:44.235Z,10.27
2022-11-05T22:03:12.687Z,10.35
2022-11-05T22:05:41.185Z,10.38
2022-11-05T22:08:09.802Z,10.80
2022-11-05T22:10:39.822Z,10.00
2022-11-05T22:13:08.445Z,9.63
2022-11-05T22:15:37.031Z,10.02
2022-11-05T22:18:05.885Z,10.32
2022-11-05T22:20:34.374Z,10.68
2022-11-05T22:23:04.534Z,11.10
2022-11-05T22:25:35.883Z,11.63
2022-11-05T22:28:05.866Z,10.93
2022-11-05T22:30:35.554Z,10.70
2022-11-05T22:33:04.197Z,12.05
2022-11-05T22:35:32.728Z,10.90
2022-11-05T22:38:01.501Z,10.82
2022-11-05T22:40:29.958Z,10.40
2022-11-05T22:42:58.458Z,10.25
2022-11-05T22:45:28.295Z,10.63
2022-11-05T22:47:56.761Z,10.48
2022-11-05T22:50:25.239Z,10.93
2022-11-05T22:52:53.854Z,10.30
2022-11-05T22:55:22.352Z,9.60
2022-11-05T22:57:50.813Z,10.55
2022-11-05T23:00:19.755Z,9.43
2022-11-05T23:02:49.679Z,12.48
2022-11-05T23:05:18.261Z,12.18
2022-11-05T23:08:04.292Z,10.50
2022-11-05T23:10:50.577Z,10.50
2022-11-05T23:13:18.978Z,10.18
2022-11-05T23:16:04.944Z,12.20
2022-11-05T23:18:52.469Z,13.43
2022-11-05T23:21:38.330Z,14.70
2022-11-05T23:24:07.177Z,15.43
2022-11-05T23:26:52.112Z,14.40
2022-11-05T23:29:21.400Z,12.18
2022-11-05T23:32:07.582Z,11.23
2022-11-05T23:34:37.551Z,11.38
2022-11-05T23:37:24.025Z,13.02
2022-11-05T23:39:52.660Z,11.82
2022-11-05T23:42:38.964Z,12.43
2022-11-05T23:45:25.878Z,11.00
2022-11-05T23:48:12.128Z,11.68
2022-11-05T23:50:42.637Z,11.00
2022-11-05T23:53:11.227Z,9.90
2022-11-05T23:55:40.661Z,9.65
2022-11-05T23:58:09.637Z,9.57
